Time;durP1;ratioP1;P1;durP2;ratioP2;P2;SDS_P1;SDS_P2;PMS_P1;PMS_P2;Temp;Humidity;BMP_temperature;BMP_pressure;BME280_temperature;BME280_humidity;BME280_pressure;Samples;Min_cycle;Max_cycle;Signal;HPM_P1;HPM_P2
2023/07/08 00:00:50;;;;;;;7.80;5.67;;;;;;;23.80;60.58;96938.31;5068343;28;20632;-81
2023/07/08 00:04:11;;;;;;;6.67;5.67;;;;;;;23.67;60.56;96922.06;5033576;28;20241;-83
2023/07/08 00:07:31;;;;;;;8.43;5.10;;;;;;;23.85;60.56;96930.78;5049075;28;20532;-83
2023/07/08 00:10:57;;;;;;;7.07;5.23;;;;;;;23.86;60.30;96931.63;5067158;28;20330;-83
2023/07/08 00:14:19;;;;;;;6.60;5.13;;;;;;;23.98;59.54;96910.03;5050342;28;20227;-81
2023/07/08 00:17:40;;;;;;;9.03;5.77;;;;;;;23.85;59.38;96919.34;5052149;28;20229;-78
2023/07/08 00:21:03;;;;;;;8.13;5.43;;;;;;;23.77;60.24;96898.97;5067700;28;20246;-80
2023/07/08 00:24:24;;;;;;;6.87;5.43;;;;;;;23.81;60.01;96916.19;5067285;28;20663;-78
2023/07/08 00:27:46;;;;;;;8.73;5.87;;;;;;;23.86;59.60;96906.00;5049234;28;20239;-83
2023/07/08 00:31:08;;;;;;;8.67;5.67;;;;;;;23.81;58.77;96895.03;5033141;28;20255;-83
2023/07/08 00:34:29;;;;;;;6.30;5.07;;;;;;;23.93;58.15;96935.28;5051653;28;20275;-79
2023/07/08 00:37:52;;;;;;;8.80;5.40;;;;;;;23.95;58.88;96915.63;5048473;28;20200;-82
2023/07/08 00:41:21;;;;;;;8.50;5.40;;;;;;;23.94;59.08;96929.88;5066142;28;20190;-83
2023/07/08 00:44:43;;;;;;;6.93;5.07;;;;;;;23.78;59.53;96905.91;5029257;28;20284;-82
2023/07/08 00:48:04;;;;;;;7.57;5.63;;;;;;;23.94;59.66;96935.16;5015078;28;20234;-78
2023/07/08 00:51:26;;;;;;;8.30;5.27;;;;;;;23.91;59.60;96937.25;5028864;28;20711;-80
2023/07/08 00:54:51;;;;;;;8.67;5.33;;;;;;;23.98;59.46;96946.25;5029168;28;20201;-80
2023/07/08 00:58:16;;;;;;;6.67;5.53;;;;;;;23.94;59.71;96951.03;5014957;28;20280;-81
2023/07/08 01:01:39;;;;;;;9.33;5.67;;;;;;;23.85;59.67;96906.97;5047772;28;20225;-81
2023/07/08 01:05:07;;;;;;;6.90;5.33;;;;;;;23.84;60.36;96934.41;5031293;28;20245;-80
2023/07/08 01:08:32;;;;;;;6.13;5.33;;;;;;;23.79;60.44;96938.50;5028831;28;20231;-82
2023/07/08 01:11:53;;;;;;;8.00;5.60;;;;;;;23.40;61.28;96914.22;5027741;28;20225;-81
2023/07/08 01:15:14;;;;;;;8.93;5.17;;;;;;;23.60;61.75;96943.94;5028607;28;20275;-81
2023/07/08 01:18:39;;;;;;;9.10;4.87;;;;;;;23.48;61.51;96946.00;5046900;28;20285;-81
2023/07/08 01:22:25;;;;;;;6.60;5.10;;;;;;;23.61;61.77;96943.81;5014764;28;20196;-81
2023/07/08 01:25:48;;;;;;;6.40;4.70;;;;;;;23.48;61.13;96938.06;5028488;28;20708;-81
2023/07/08 01:29:09;;;;;;;5.63;4.87;;;;;;;23.55;61.14;96943.59;5030099;28;20220;-81
2023/07/08 01:32:30;;;;;;;7.70;5.90;;;;;;;23.67;61.31;96937.06;5030596;28;20231;-83
2023/07/08 01:35:51;;;;;;;8.27;5.30;;;;;;;23.61;61.56;96921.81;5028881;28;20251;-83
2023/07/08 01:39:12;;;;;;;8.50;5.33;;;;;;;23.71;61.18;96941.06;5030620;28;20250;-80
2023/07/08 01:42:33;;;;;;;7.47;4.80;;;;;;;23.73;61.77;96936.47;5027670;28;20213;-83
2023/07/08 01:45:54;;;;;;;7.87;5.10;;;;;;;23.56;61.97;96929.38;5011325;28;20676;-83
2023/07/08 01:49:16;;;;;;;9.03;5.10;;;;;;;23.41;63.48;96929.13;5028433;28;20220;-81
2023/07/08 01:52:40;;;;;;;8.53;5.90;;;;;;;23.29;64.15;96938.19;5014051;28;20197;-82
2023/07/08 01:56:02;;;;;;;8.50;5.40;;;;;;;23.29;64.03;96936.38;5029956;28;20283;-82
2023/07/08 01:59:25;;;;;;;7.17;5.73;;;;;;;23.11;64.06;96934.72;5027448;28;20291;-83
2023/07/08 02:02:46;;;;;;;9.70;5.93;;;;;;;23.05;65.21;96930.03;5015154;28;20202;-80
2023/07/08 02:05:47;;;;;;;8.77;5.50;;;;;;;;;;5027730;28;20203;-80
2023/07/08 02:09:11;;;;;;;6.57;5.70;;;;;;;23.06;64.91;96924.59;5044733;28;20247;-83
2023/07/08 02:12:31;;;;;;;6.33;5.60;;;;;;;22.96;64.81;96923.00;5011145;28;20197;-79
2023/07/08 02:15:53;;;;;;;8.23;6.97;;;;;;;23.02;64.91;96925.06;5062403;28;20213;-81
2023/07/08 02:19:15;;;;;;;6.30;5.67;;;;;;;23.12;65.14;96926.63;5035134;28;20213;-82
2023/07/08 02:22:36;;;;;;;9.23;6.83;;;;;;;23.19;65.47;96926.88;5013428;28;20200;-80
2023/07/08 02:25:58;;;;;;;8.07;6.57;;;;;;;23.00;67.35;96935.75;5018799;28;20200;-84
2023/07/08 02:29:19;;;;;;;9.13;6.63;;;;;;;23.00;67.24;96937.59;5052335;28;20223;-82
2023/07/08 02:32:40;;;;;;;6.23;5.57;;;;;;;22.88;68.13;96954.59;5038265;28;20200;-82
2023/07/08 02:36:07;;;;;;;4.73;4.10;;;;;;;22.56;65.68;96958.50;5039204;28;20237;-83
2023/07/08 02:39:05;;;;;;;5.53;4.50;;;;;;;22.50;67.87;96951.13;5065307;28;20200;-80
2023/07/08 02:42:14;;;;;;;10.33;4.07;;;;;;;22.45;67.26;96966.59;5048350;28;20712;-83
2023/07/08 02:45:37;;;;;;;3.67;3.20;;;;;;;22.25;65.97;96972.91;5065046;28;20209;-83
2023/07/08 02:49:01;;;;;;;5.23;3.50;;;;;;;22.03;67.61;96973.22;5066093;28;20200;-81
2023/07/08 02:52:22;;;;;;;8.83;3.67;;;;;;;21.91;69.95;96984.91;5065323;28;20205;-83
2023/07/08 02:55:42;;;;;;;7.63;4.30;;;;;;;21.67;71.53;97006.44;5032552;28;20201;-84
2023/07/08 02:59:03;;;;;;;5.37;4.30;;;;;;;21.58;72.78;97003.78;5069004;28;20261;-81
2023/07/08 03:02:24;;;;;;;8.07;4.50;;;;;;;21.44;72.77;97017.34;5069233;28;20759;-83
2023/07/08 03:05:46;;;;;;;5.80;4.67;;;;;;;21.44;72.07;97006.81;5033890;28;20206;-79
2023/07/08 03:09:07;;;;;;;5.13;4.20;;;;;;;21.41;70.08;96999.22;5048399;28;20240;-82
2023/07/08 03:12:28;;;;;;;7.20;5.17;;;;;;;21.58;69.82;97004.63;5048299;28;20289;-83
2023/07/08 03:15:49;;;;;;;5.47;4.83;;;;;;;21.59;70.45;97011.56;5031567;28;20205;-83
2023/07/08 03:19:14;;;;;;;6.60;5.23;;;;;;;21.44;71.79;97001.56;5034312;28;20215;-82
2023/07/08 03:22:36;;;;;;;5.90;4.43;;;;;;;21.44;71.08;97017.34;5016554;28;20194;-78
2023/07/08 03:25:58;;;;;;;5.10;4.00;;;;;;;21.45;70.10;97029.59;5048493;28;20194;-82
2023/07/08 03:29:19;;;;;;;5.73;4.40;;;;;;;21.42;70.50;97029.84;5030607;28;20337;-79
2023/07/08 03:32:42;;;;;;;5.63;4.00;;;;;;;21.48;70.16;97056.50;5000781;28;20195;-83
2023/07/08 03:36:04;;;;;;;5.43;4.57;;;;;;;21.28;71.24;97035.50;5014009;28;20202;-82
2023/07/08 03:39:25;;;;;;;5.47;4.37;;;;;;;21.35;71.16;97026.09;5032830;28;20280;-79
2023/07/08 03:42:49;;;;;;;5.37;4.40;;;;;;;21.34;70.68;96990.19;5046695;28;20293;-80
2023/07/08 03:46:10;;;;;;;7.27;4.10;;;;;;;21.54;69.59;97020.84;5016432;28;20339;-80
2023/07/08 03:49:32;;;;;;;4.97;4.10;;;;;;;21.69;70.44;97032.66;5030788;28;20217;-80
2023/07/08 03:52:57;;;;;;;8.83;5.20;;;;;;;21.87;69.11;97028.38;5030544;28;20203;-79
2023/07/08 03:56:19;;;;;;;5.90;4.60;;;;;;;21.83;68.69;97026.97;5030424;28;20201;-76
2023/07/08 03:59:41;;;;;;;5.03;3.37;;;;;;;21.42;67.03;97022.78;5047763;28;20199;-77
2023/07/08 04:03:03;;;;;;;5.93;3.00;;;;;;;21.15;67.86;97012.06;5030035;28;20210;-76
2023/07/08 04:06:23;;;;;;;4.10;3.13;;;;;;;21.13;67.61;96998.19;5048857;28;20209;-78
2023/07/08 04:09:49;;;;;;;4.80;3.20;;;;;;;21.06;67.52;96997.88;5049827;28;20319;-78
2023/07/08 04:13:10;;;;;;;4.13;3.30;;;;;;;21.34;68.58;97005.97;5067109;28;20645;-77
2023/07/08 04:16:36;;;;;;;3.80;2.80;;;;;;;21.51;67.88;96997.41;5051611;28;20198;-79
2023/07/08 04:19:57;;;;;;;4.10;2.90;;;;;;;21.72;68.30;96995.47;5033337;28;20202;-78
2023/07/08 04:23:19;;;;;;;3.77;3.13;;;;;;;21.80;68.02;96993.78;5051221;28;20234;-77
2023/07/08 04:26:41;;;;;;;4.70;3.60;;;;;;;22.12;67.40;96998.78;5067304;28;20207;-77
2023/07/08 04:30:04;;;;;;;4.80;3.80;;;;;;;22.16;67.37;97008.06;5034427;28;20731;-77
2023/07/08 04:33:24;;;;;;;3.33;2.90;;;;;;;22.27;66.95;97017.63;5049080;28;20199;-77
2023/07/08 04:36:45;;;;;;;5.07;3.50;;;;;;;22.10;67.97;97011.28;5049577;28;20625;-77
2023/07/08 04:40:07;;;;;;;4.77;3.70;;;;;;;21.95;68.47;97012.66;5066731;28;20213;-78
2023/07/08 04:43:29;;;;;;;5.37;4.73;;;;;;;22.22;66.63;97004.84;5051544;28;20294;-81
2023/07/08 04:46:54;;;;;;;9.77;5.77;;;;;;;22.38;66.77;97007.72;5067693;28;20898;-78
2023/07/08 04:50:15;;;;;;;7.37;6.67;;;;;;;22.16;68.69;97017.78;5066581;28;20226;-79
2023/07/08 04:53:36;;;;;;;7.70;7.00;;;;;;;22.15;69.07;97009.06;5066943;28;20239;-79
2023/07/08 04:57:05;;;;;;;10.73;7.60;;;;;;;22.31;69.41;97022.47;5066398;28;20629;-79
2023/07/08 05:00:27;;;;;;;10.03;7.83;;;;;;;22.20;69.32;97003.31;5050612;28;20702;-81
2023/07/08 05:03:48;;;;;;;8.43;7.00;;;;;;;22.30;69.79;97014.69;5066203;28;20331;-79
2023/07/08 05:07:09;;;;;;;8.63;7.80;;;;;;;22.38;70.12;96999.81;5048784;28;20199;-78
2023/07/08 05:10:30;;;;;;;9.33;7.83;;;;;;;22.42;69.18;97010.94;5048255;28;20880;-75
2023/07/08 05:13:50;;;;;;;8.63;7.40;;;;;;;22.52;69.13;96999.34;5033582;28;20195;-77
2023/07/08 05:17:13;;;;;;;8.37;7.47;;;;;;;22.70;68.28;97010.00;5048158;28;20261;-80
2023/07/08 05:20:35;;;;;;;8.60;7.80;;;;;;;22.83;68.08;97004.41;5066625;28;20203;-82
2023/07/08 05:23:55;;;;;;;8.73;7.53;;;;;;;22.75;67.92;97001.66;5031508;28;20235;-78
2023/07/08 05:27:16;;;;;;;10.83;7.40;;;;;;;22.95;67.13;97011.16;5047827;28;20199;-82
2023/07/08 05:30:37;;;;;;;9.50;7.37;;;;;;;22.85;67.22;97010.38;5063302;28;20195;-79
2023/07/08 05:33:58;;;;;;;9.43;7.30;;;;;;;22.93;67.68;97006.03;5033349;28;20198;-78
2023/07/08 05:37:24;;;;;;;7.43;6.53;;;;;;;23.09;67.07;97006.22;5049250;28;20203;-79
2023/07/08 05:40:46;;;;;;;15.17;7.30;;;;;;;23.51;66.11;97013.63;5047974;28;20282;-79
2023/07/08 05:44:07;;;;;;;9.77;7.57;;;;;;;23.72;64.57;97011.50;5047029;28;20244;-79
2023/07/08 05:47:28;;;;;;;8.93;6.43;;;;;;;24.11;63.87;97034.84;5032832;28;20588;-79
2023/07/08 05:50:49;;;;;;;10.43;6.70;;;;;;;24.09;62.30;97028.88;5047828;28;20198;-79
2023/07/08 05:54:09;;;;;;;16.07;9.03;;;;;;;24.00;62.98;97035.06;5065710;28;20245;-79
2023/07/08 05:57:30;;;;;;;7.60;6.40;;;;;;;23.76;62.73;97032.19;5047249;28;20253;-78
2023/07/08 06:00:52;;;;;;;6.87;6.13;;;;;;;23.44;64.16;97030.09;5049563;28;20222;-78
2023/07/08 06:04:13;;;;;;;7.27;5.93;;;;;;;23.35;64.55;97033.59;5049423;28;20237;-78
2023/07/08 06:07:33;;;;;;;7.47;6.67;;;;;;;23.43;64.07;97035.53;5047981;28;20250;-80
2023/07/08 06:10:54;;;;;;;10.37;6.80;;;;;;;23.17;64.63;97016.03;5047256;28;20230;-78
2023/07/08 06:14:15;;;;;;;7.03;6.30;;;;;;;23.28;64.11;97037.81;5046874;28;20692;-77
2023/07/08 06:17:36;;;;;;;6.63;6.03;;;;;;;23.49;64.09;97042.84;5065446;28;20704;-78
2023/07/08 06:20:57;;;;;;;7.27;5.90;;;;;;;23.93;61.92;97027.88;5030889;28;20284;-77
2023/07/08 06:24:18;;;;;;;7.07;5.60;;;;;;;23.34;64.34;97031.13;5047304;28;20234;-83
2023/07/08 06:27:39;;;;;;;7.83;5.93;;;;;;;23.54;63.60;97027.38;5049249;28;20561;-81
2023/07/08 06:30:59;;;;;;;6.40;5.80;;;;;;;23.78;62.77;97040.81;5047885;28;20283;-76
2023/07/08 06:34:23;;;;;;;7.90;5.53;;;;;;;23.88;61.52;97044.22;5050160;28;20263;-81
2023/07/08 06:37:45;;;;;;;7.47;5.53;;;;;;;24.14;60.70;97044.31;5050031;28;20708;-79
2023/07/08 06:45:00;;;;;;;6.20;5.30;;;;;;;24.57;59.66;97054.03;5049332;28;20234;-79
2023/07/08 06:48:29;;;;;;;7.27;5.40;;;;;;;24.29;60.07;97010.16;5000246;28;20211;-81
2023/07/08 06:51:53;;;;;;;11.50;5.60;;;;;;;24.08;61.65;97053.69;5016963;28;20230;-83
2023/07/08 06:55:15;;;;;;;5.90;5.30;;;;;;;24.56;60.54;97062.97;5049825;28;20195;-82
2023/07/08 06:58:36;;;;;;;6.70;4.83;;;;;;;24.81;59.24;97068.28;5016306;28;20201;-81
2023/07/08 07:01:59;;;;;;;5.83;5.13;;;;;;;24.28;60.03;97077.34;5030406;28;20550;-79
2023/07/08 07:05:26;;;;;;;7.43;5.70;;;;;;;24.14;60.36;97079.53;5015142;28;20239;-79
2023/07/08 07:08:56;;;;;;;7.10;5.40;;;;;;;23.96;60.99;97081.34;5007450;28;20240;-81
2023/07/08 07:12:34;;;;;;;6.07;5.47;;;;;;;24.77;59.03;97074.06;4951365;29;20265;-81
2023/07/08 07:20:11;;;;;;;5.77;4.63;;;;;;;25.12;56.47;97081.88;4895784;29;20259;-83
2023/07/08 07:23:33;;;;;;;6.67;5.10;;;;;;;25.23;56.85;97086.03;4910166;29;20244;-79
2023/07/08 07:26:56;;;;;;;7.13;4.93;;;;;;;25.77;55.81;97105.00;4893431;29;20835;-79
2023/07/08 07:30:32;;;;;;;8.50;5.10;;;;;;;25.45;55.69;97085.53;4914881;29;20199;-80
2023/07/08 07:34:18;;;;;;;5.10;4.60;;;;;;;25.05;56.83;97094.09;4894630;29;20238;-82
2023/07/08 07:37:42;;;;;;;5.00;3.80;;;;;;;24.66;57.56;97111.38;4909672;29;20245;-83
2023/07/08 07:41:06;;;;;;;6.40;4.43;;;;;;;24.38;58.93;97105.38;4935520;28;20738;-80
2023/07/08 07:44:31;;;;;;;5.73;4.90;;;;;;;24.63;58.07;97112.50;4985906;28;20809;-79
2023/07/08 07:47:52;;;;;;;5.03;4.00;;;;;;;24.71;58.91;97117.06;4968970;28;20946;-80
2023/07/08 07:51:15;;;;;;;4.83;4.10;;;;;;;24.43;58.80;97097.81;5005412;28;20762;-82
2023/07/08 07:54:45;;;;;;;5.03;4.63;;;;;;;24.18;60.58;97112.66;4989255;28;20204;-83
2023/07/08 07:58:11;;;;;;;9.40;4.90;;;;;;;23.87;61.53;97105.22;5005274;28;20196;-81
2023/07/08 08:01:32;;;;;;;6.53;4.43;;;;;;;24.11;60.03;97102.84;4981075;28;20290;-78
2023/07/08 08:04:53;;;;;;;7.40;5.30;;;;;;;24.44;59.24;97118.00;5047073;28;20287;-78
2023/07/08 08:08:14;;;;;;;7.13;4.80;;;;;;;24.33;60.04;97112.13;5046958;28;20193;-80
2023/07/08 08:11:35;;;;;;;5.37;4.10;;;;;;;24.58;59.10;97104.22;5029439;28;20745;-79
2023/07/08 08:15:02;;;;;;;5.07;4.33;;;;;;;24.66;58.60;97100.78;5029055;28;20226;-81
2023/07/08 08:17:49;;;;;;;4.20;3.80;;;;;;;24.62;57.16;97076.44;5030691;28;20210;-81
2023/07/08 08:20:22;;;;;;;6.23;4.00;;;;;;;24.87;57.21;97118.00;5047822;28;20673;-83
2023/07/08 08:22:51;;;;;;;4.70;4.17;;;;;;;24.60;57.50;97122.59;5029256;28;20263;-78
2023/07/08 08:25:21;;;;;;;4.43;4.03;;;;;;;24.27;57.79;97131.25;5031142;28;20706;-79
2023/07/08 08:27:52;;;;;;;6.73;4.87;;;;;;;24.40;58.24;97105.22;5029374;28;20199;-78
2023/07/08 08:30:20;;;;;;;7.53;5.00;;;;;;;24.62;57.17;97115.31;5029672;28;20560;-79
2023/07/08 08:32:49;;;;;;;4.87;4.13;;;;;;;24.53;57.96;97105.66;5029220;28;20211;-81
2023/07/08 08:35:20;;;;;;;4.93;4.43;;;;;;;24.44;57.81;97096.00;5047941;28;20206;-80
2023/07/08 08:38:29;;;;;;;5.90;4.80;;;;;;;24.98;57.64;97130.16;5031473;28;20578;-83
2023/07/08 08:41:56;;;;;;;5.60;4.37;;;;;;;25.36;56.91;97116.44;5031795;28;20208;-84
2023/07/08 08:45:18;;;;;;;4.83;4.33;;;;;;;25.65;55.73;97122.22;5046596;28;20228;-84
2023/07/08 08:48:05;;;;;;;5.90;4.47;;;;;;;25.57;56.14;97114.25;5031494;28;20724;-77
2023/07/08 08:50:50;;;;;;;5.93;4.30;;;;;;;25.79;54.48;97123.41;5047340;28;20350;-82
2023/07/08 08:53:23;;;;;;;7.03;4.30;;;;;;;25.40;55.55;97125.75;5029636;28;20196;-79
2023/07/08 08:56:19;;;;;;;6.07;4.63;;;;;;;25.62;56.08;97116.38;4998356;28;20205;-85
2023/07/08 08:59:43;;;;;;;6.07;4.67;;;;;;;26.19;54.80;97120.03;5019391;28;20205;-81
2023/07/08 09:03:21;;;;;;;4.57;4.17;;;;;;;25.80;55.69;97125.91;5046794;28;20197;-83
2023/07/08 09:07:02;;;;;;;5.77;4.57;;;;;;;26.41;53.58;97119.38;5047034;28;20274;-85
2023/07/08 09:10:01;;;;;;;4.90;4.40;;;;;;;26.23;52.64;97130.16;5030962;28;20259;-83
2023/07/08 09:12:34;;;;;;;5.20;4.70;;;;;;;25.98;53.06;97127.59;5034310;28;20225;-80
2023/07/08 09:15:26;;;;;;;4.90;4.40;;;;;;;25.71;54.32;97141.97;4998007;28;20771;-80
2023/07/08 09:18:03;;;;;;;5.97;4.63;;;;;;;25.87;54.39;97106.66;5047124;28;20262;-76
2023/07/08 09:20:32;;;;;;;7.67;5.03;;;;;;;26.26;53.60;97121.03;5028896;28;20197;-83
2023/07/08 09:23:03;;;;;;;6.43;4.93;;;;;;;25.94;53.88;97135.06;5012352;28;20307;-81
2023/07/08 09:26:18;;;;;;;7.17;4.70;;;;;;;25.66;54.68;97123.03;5029040;28;20194;-80
2023/07/08 09:28:48;;;;;;;5.80;5.20;;;;;;;25.62;54.19;97119.88;5028323;28;20616;-78
2023/07/08 09:31:27;;;;;;;5.67;5.00;;;;;;;25.62;53.04;97103.97;5028794;28;20292;-83
2023/07/08 09:34:17;;;;;;;5.73;4.77;;;;;;;25.70;53.66;97124.38;5046781;28;20595;-77
2023/07/08 09:36:47;;;;;;;6.13;4.90;;;;;;;25.66;53.33;97104.47;5045089;28;20632;-84
2023/07/08 09:39:20;;;;;;;7.10;5.40;;;;;;;25.54;54.09;97122.50;5047574;28;20202;-78
2023/07/08 09:41:50;;;;;;;5.20;4.63;;;;;;;25.03;54.80;97093.41;5046909;28;20203;-71
2023/07/08 09:44:29;;;;;;;6.70;5.83;;;;;;;25.22;55.27;97093.19;5046714;28;20229;-81
2023/07/08 09:46:58;;;;;;;7.43;5.93;;;;;;;25.21;56.07;97107.41;5029540;28;20204;-79
2023/07/08 09:49:47;;;;;;;7.10;6.40;;;;;;;24.34;58.80;97087.31;5046459;28;20205;-82
2023/07/08 09:53:04;;;;;;;6.60;6.00;;;;;;;23.88;64.06;97115.66;5013054;28;20281;-79
2023/07/08 09:56:25;;;;;;;6.00;5.20;;;;;;;23.56;66.52;97109.16;5027618;28;20797;-81
2023/07/08 09:59:46;;;;;;;6.37;5.77;;;;;;;23.46;66.35;97122.47;5027293;28;20244;-79
2023/07/08 10:03:10;;;;;;;7.23;6.53;;;;;;;23.10;68.58;97118.81;5048513;28;20241;-80
2023/07/08 10:06:32;;;;;;;8.90;6.53;;;;;;;22.94;69.19;97125.69;5016945;28;20210;-80
2023/07/08 10:09:54;;;;;;;7.53;6.00;;;;;;;22.95;70.09;97119.44;5045515;28;20266;-78
2023/07/08 10:13:16;;;;;;;8.47;5.87;;;;;;;22.91;70.66;97110.16;5045181;28;20197;-77
2023/07/08 10:16:46;;;;;;;9.77;6.07;;;;;;;23.09;69.96;97111.06;5043749;28;20213;-78
2023/07/08 10:20:07;;;;;;;7.23;6.53;;;;;;;22.99;70.34;97094.41;5026368;28;20232;-80
2023/07/08 10:22:54;;;;;;;7.17;6.50;;;;;;;22.90;70.60;97101.38;5044958;28;20201;-80
2023/07/08 10:26:15;;;;;;;7.53;6.80;;;;;;;22.93;72.28;97092.34;5006773;28;20194;-79
2023/07/08 10:29:20;;;;;;;6.80;6.07;;;;;;;22.96;71.38;97092.03;5006986;28;20298;-75
2023/07/08 10:32:27;;;;;;;10.47;6.63;;;;;;;23.19;71.40;97091.53;5025106;28;20281;-76
2023/07/08 10:35:07;;;;;;;6.47;5.87;;;;;;;23.57;69.24;97085.25;5007385;28;20712;-77
2023/07/08 10:38:23;;;;;;;8.17;6.17;;;;;;;23.62;69.02;97082.97;5024940;28;20257;-78
2023/07/08 10:41:28;;;;;;;7.80;5.50;;;;;;;23.70;68.63;97077.75;5024755;28;20294;-80
2023/07/08 10:44:55;;;;;;;9.23;5.40;;;;;;;23.56;68.34;97080.94;5008789;28;20245;-83
2023/07/08 10:48:30;;;;;;;6.20;5.57;;;;;;;23.49;67.59;97093.09;5025217;28;20215;-81
2023/07/08 10:51:34;;;;;;;6.73;5.63;;;;;;;23.48;69.14;97085.28;5024441;28;20203;-82
2023/07/08 10:54:18;;;;;;;7.30;6.60;;;;;;;23.47;69.35;97105.63;4993162;28;20199;-79
2023/07/08 10:57:23;;;;;;;6.83;5.90;;;;;;;23.32;70.19;97113.22;5026079;28;20987;-78
2023/07/08 11:00:28;;;;;;;7.70;7.00;;;;;;;23.20;70.45;97124.09;5011133;28;20738;-79
2023/07/08 11:03:49;;;;;;;6.77;6.03;;;;;;;23.07;73.21;97144.72;4996635;28;20248;-77
2023/07/08 11:07:22;;;;;;;18.33;11.30;;;;;;;22.62;75.76;97166.53;5044628;28;20281;-81
2023/07/08 11:10:43;;;;;;;31.53;20.13;;;;;;;22.17;79.21;97168.03;5026958;28;20203;-76
2023/07/08 11:14:06;;;;;;;12.37;7.30;;;;;;;21.75;82.21;97158.63;5026734;28;20334;-82
2023/07/08 11:17:44;;;;;;;6.23;4.27;;;;;;;21.71;74.34;97151.97;5030490;28;20202;-77
2023/07/08 11:21:05;;;;;;;7.53;5.00;;;;;;;21.99;81.98;97153.84;4947287;29;20207;-80
2023/07/08 11:24:12;;;;;;;7.43;4.80;;;;;;;21.97;80.95;97145.22;4947285;29;20424;-82
2023/07/08 11:27:35;;;;;;;4.93;3.60;;;;;;;22.15;79.40;97150.69;4947744;29;20277;-77
2023/07/08 11:30:56;;;;;;;6.10;4.20;;;;;;;22.20;78.50;97120.25;4931498;29;20203;-79
2023/07/08 11:34:17;;;;;;;4.37;3.07;;;;;;;22.47;78.25;97144.13;4947508;29;20285;-78
2023/07/08 11:37:39;;;;;;;4.27;3.50;;;;;;;22.37;79.89;97148.59;4929324;29;20302;-82
2023/07/08 11:41:16;;;;;;;3.60;3.30;;;;;;;22.33;78.92;97143.72;4949248;29;20285;-82
2023/07/08 11:44:49;;;;;;;4.53;3.07;;;;;;;22.36;77.67;97141.63;4942352;29;20236;-79
2023/07/08 11:48:13;;;;;;;6.60;3.57;;;;;;;22.44;76.28;97154.16;4929908;29;20207;-83
2023/07/08 11:51:37;;;;;;;6.17;3.60;;;;;;;22.40;77.54;97135.09;4973578;28;20340;-85
2023/07/08 11:55:01;;;;;;;4.43;3.30;;;;;;;22.52;77.25;97154.28;5051438;28;21232;-83
2023/07/08 11:58:27;;;;;;;6.47;3.47;;;;;;;22.49;77.43;97149.25;5047046;28;20200;-83
2023/07/08 12:01:17;;;;;;;6.33;4.13;;;;;;;22.37;76.90;97145.09;5032758;28;20208;-78
2023/07/08 12:04:10;;;;;;;5.83;3.73;;;;;;;22.47;76.59;97148.56;5029777;28;20237;-83
2023/07/08 12:07:37;;;;;;;6.90;4.27;;;;;;;22.60;75.75;97155.28;5015977;28;20274;-77
2023/07/08 12:10:58;;;;;;;13.47;8.77;;;;;;;22.57;74.69;97150.22;5039240;28;20259;-79
2023/07/08 12:14:19;;;;;;;18.43;11.70;;;;;;;22.51;74.25;97139.38;5054580;28;20698;-83
2023/07/08 12:17:41;;;;;;;13.00;8.73;;;;;;;22.51;74.60;97140.22;5043339;28;20202;-78
2023/07/08 12:21:08;;;;;;;9.40;7.67;;;;;;;22.53;75.33;97137.44;5035914;28;20216;-82
2023/07/08 12:24:31;;;;;;;6.03;4.63;;;;;;;22.52;74.17;97133.97;5052042;28;20454;-78
2023/07/08 12:27:52;;;;;;;9.37;6.33;;;;;;;22.58;74.81;97151.09;5007129;28;20290;-76
2023/07/08 12:31:13;;;;;;;18.53;12.43;;;;;;;22.62;75.39;97149.84;5053171;28;20224;-77
2023/07/08 12:34:34;;;;;;;18.03;10.73;;;;;;;22.79;74.94;97151.75;5039621;28;20200;-78
2023/07/08 12:37:56;;;;;;;14.87;9.97;;;;;;;22.85;74.13;97145.06;5066912;28;20754;-81
2023/07/08 12:41:19;;;;;;;20.33;11.67;;;;;;;22.97;73.29;97149.19;5066516;28;20204;-80
2023/07/08 12:44:43;;;;;;;18.70;12.07;;;;;;;23.10;72.71;97144.44;5033468;28;20328;-83
2023/07/08 12:48:05;;;;;;;10.70;7.13;;;;;;;23.01;73.20;97142.66;5066512;28;20198;-82
2023/07/08 12:51:25;;;;;;;7.37;5.67;;;;;;;23.05;73.57;97138.75;5050728;28;20208;-83
2023/07/08 12:54:48;;;;;;;6.00;5.37;;;;;;;23.18;72.59;97157.75;5052180;28;20205;-83
2023/07/08 12:58:09;;;;;;;6.57;5.40;;;;;;;23.49;72.52;97151.25;5053212;28;20247;-79
2023/07/08 13:01:34;;;;;;;4.80;4.33;;;;;;;23.71;70.05;97153.50;5066732;28;20260;-82
2023/07/08 13:04:56;;;;;;;4.90;4.40;;;;;;;23.87;68.92;97140.44;5050433;28;20257;-81
2023/07/08 13:08:20;;;;;;;7.43;6.07;;;;;;;24.09;69.32;97149.81;5050539;28;20675;-76
2023/07/08 13:11:42;;;;;;;5.17;4.67;;;;;;;24.25;66.87;97148.09;5066590;28;20216;-80
2023/07/08 13:15:02;;;;;;;5.30;4.20;;;;;;;24.39;65.26;97153.88;5050813;28;20731;-83
2023/07/08 13:18:23;;;;;;;5.57;3.70;;;;;;;24.39;65.50;97140.63;5065720;28;20208;-79
2023/07/08 13:21:44;;;;;;;3.90;3.30;;;;;;;24.46;62.18;97163.69;5062890;28;20206;-81
2023/07/08 13:25:05;;;;;;;4.33;3.47;;;;;;;24.34;63.25;97153.50;5065917;28;20226;-81
2023/07/08 13:28:44;;;;;;;6.37;4.20;;;;;;;24.49;62.58;97141.38;5046194;28;20195;-80
2023/07/08 13:32:07;;;;;;;4.77;3.70;;;;;;;24.39;62.42;97162.66;5048162;28;20239;-78
2023/07/08 13:35:44;;;;;;;5.73;4.40;;;;;;;24.94;62.53;97155.31;5065764;28;20271;-78
2023/07/08 13:39:04;;;;;;;6.13;4.10;;;;;;;24.86;59.34;97157.91;5064676;28;20195;-81
2023/07/08 13:42:25;;;;;;;4.17;3.03;;;;;;;24.57;60.16;97144.91;5027910;28;20244;-77
2023/07/08 13:45:47;;;;;;;4.27;3.30;;;;;;;24.94;59.35;97142.91;5027596;28;20326;-79
2023/07/08 13:49:15;;;;;;;3.47;3.17;;;;;;;24.87;58.91;97133.09;5028207;28;20719;-79
2023/07/08 13:52:12;;;;;;;4.27;3.23;;;;;;;24.68;60.36;97152.63;5027303;28;20219;-76
2023/07/08 13:55:37;;;;;;;5.27;3.13;;;;;;;24.87;59.88;97152.44;5045452;28;20770;-76
2023/07/08 13:59:00;;;;;;;3.30;3.00;;;;;;;24.95;60.25;97141.91;5063492;28;20208;-76
2023/07/08 14:02:21;;;;;;;3.67;3.27;;;;;;;24.43;59.83;97141.97;5047959;28;20204;-78
2023/07/08 14:05:42;;;;;;;3.97;3.40;;;;;;;24.17;61.07;97121.56;5065084;28;20239;-78
2023/07/08 14:09:03;;;;;;;3.43;3.13;;;;;;;24.32;62.02;97127.16;5049615;28;20202;-82
2023/07/08 14:12:25;;;;;;;4.90;3.70;;;;;;;24.36;62.58;97114.47;5016319;28;20200;-78
2023/07/08 14:15:46;;;;;;;4.83;4.07;;;;;;;24.60;62.76;97128.72;5033176;28;20687;-81
2023/07/08 14:18:27;;;;;;;8.27;4.87;;;;;;;24.55;62.40;97119.56;5065128;28;21138;-82
2023/07/08 14:20:55;;;;;;;5.57;3.70;;;;;;;24.37;61.77;97124.91;5047712;28;20214;-80
2023/07/08 14:24:03;;;;;;;5.80;4.07;;;;;;;24.15;61.64;97123.53;5066480;28;20606;-79
2023/07/08 14:27:24;;;;;;;7.27;4.60;;;;;;;24.27;62.05;97125.97;5049193;28;20207;-81
2023/07/08 14:30:45;;;;;;;4.27;3.67;;;;;;;24.11;62.48;97132.75;5064767;28;20210;-79
2023/07/08 14:34:06;;;;;;;4.13;3.40;;;;;;;23.62;63.21;97080.31;5047049;28;20202;-78
2023/07/08 14:37:36;;;;;;;4.63;3.00;;;;;;;23.78;63.51;97117.50;5035127;28;20211;-78
2023/07/08 14:40:46;;;;;;;13.03;4.27;;;;;;;23.92;63.79;97113.53;5032843;28;20201;-77
2023/07/08 14:44:08;;;;;;;4.87;3.60;;;;;;;24.14;62.78;97124.53;5058194;28;20223;-80
2023/07/08 14:47:31;;;;;;;5.63;3.77;;;;;;;24.15;61.86;97112.94;5053394;28;20199;-78
2023/07/08 14:50:52;;;;;;;3.67;3.23;;;;;;;24.53;61.75;97110.94;5054652;28;20209;-78
2023/07/08 14:54:14;;;;;;;4.13;3.60;;;;;;;24.78;60.18;97104.88;5042593;28;20230;-80
2023/07/08 14:57:36;;;;;;;6.23;5.10;;;;;;;24.82;61.25;97104.41;5044316;28;20198;-79
2023/07/08 15:00:58;;;;;;;4.47;3.83;;;;;;;24.88;59.22;97095.81;5042477;28;20753;-82
2023/07/08 15:04:18;;;;;;;3.80;3.30;;;;;;;25.00;59.30;97107.81;5042010;28;20292;-82
2023/07/08 15:07:56;;;;;;;3.40;3.10;;;;;;;24.62;59.77;97105.56;5044922;28;20208;-79
2023/07/08 15:11:17;;;;;;;4.73;2.70;;;;;;;24.68;57.75;97110.25;5049658;28;20204;-77
2023/07/08 15:14:40;;;;;;;4.10;3.00;;;;;;;24.64;58.25;97121.28;5050331;28;20210;-76
2023/07/08 15:18:04;;;;;;;3.53;2.83;;;;;;;24.67;58.51;97113.88;5068232;28;20282;-80
2023/07/08 15:21:32;;;;;;;4.47;2.93;;;;;;;24.61;58.83;97119.78;5048691;28;20208;-82
2023/07/08 15:24:53;;;;;;;4.00;3.17;;;;;;;24.61;59.23;97122.44;5048791;28;20226;-80
2023/07/08 15:28:13;;;;;;;3.80;3.17;;;;;;;24.60;59.07;97120.78;5036909;28;20643;-74
2023/07/08 15:30:54;;;;;;;4.10;3.53;;;;;;;24.67;58.00;97123.63;5059189;28;20237;-74
2023/07/08 15:33:21;;;;;;;3.57;3.10;;;;;;;24.56;57.74;97127.38;5044227;28;20211;-73